Time;durP1;ratioP1;P1;durP2;ratioP2;P2;SDS_P1;SDS_P2;PMS_P1;PMS_P2;Temp;Humidity;BMP_temperature;BMP_pressure;BME280_temperature;BME280_humidity;BME280_pressure;Samples;Min_cycle;Max_cycle;Signal;HPM_P1;HPM_P2
2023/08/25 00:00:32;;;;;;;3.63;2.92;;;23.00;98.10;;;;;;5095893;28;20066;-82
2023/08/25 00:02:58;;;;;;;2.33;2.05;;;23.10;98.00;;;;;;5095877;28;20032;-83
2023/08/25 00:05:24;;;;;;;3.97;2.33;;;23.10;97.90;;;;;;5094620;28;20028;-83
2023/08/25 00:07:50;;;;;;;2.08;1.00;;;23.10;97.80;;;;;;5096011;28;20521;-81
2023/08/25 00:10:15;;;;;;;2.10;1.52;;;23.20;97.70;;;;;;5096052;28;20043;-82
2023/08/25 00:12:41;;;;;;;3.25;2.95;;;23.20;97.50;;;;;;5094589;28;20043;-81
2023/08/25 00:15:08;;;;;;;3.55;2.50;;;23.30;97.50;;;;;;5094284;28;20035;-82
2023/08/25 00:17:34;;;;;;;2.25;1.60;;;23.30;97.50;;;;;;5095556;28;20353;-82
2023/08/25 00:20:00;;;;;;;6.35;3.80;;;23.30;97.30;;;;;;5096165;28;20120;-83
2023/08/25 00:22:27;;;;;;;2.90;2.58;;;23.30;97.30;;;;;;5095469;28;20533;-83
2023/08/25 00:24:55;;;;;;;4.40;3.25;;;23.30;97.30;;;;;;5095301;28;20024;-82
2023/08/25 00:27:21;;;;;;;2.55;2.35;;;23.30;97.40;;;;;;5095398;28;20134;-82
2023/08/25 00:29:47;;;;;;;3.17;2.40;;;23.30;97.40;;;;;;5094155;28;20028;-82
2023/08/25 00:32:13;;;;;;;4.45;2.95;;;23.30;97.30;;;;;;5094165;28;20055;-83
2023/08/25 00:34:39;;;;;;;3.60;1.70;;;23.30;97.20;;;;;;5094798;28;20488;-83
2023/08/25 00:37:05;;;;;;;5.38;4.30;;;23.40;97.20;;;;;;5094726;28;20020;-83
2023/08/25 00:39:31;;;;;;;2.75;2.55;;;23.40;97.10;;;;;;5095145;28;20028;-82
2023/08/25 00:41:57;;;;;;;4.95;2.92;;;23.40;97.10;;;;;;5095105;28;20527;-82
2023/08/25 00:44:22;;;;;;;4.38;2.45;;;23.40;97.00;;;;;;5094683;28;20158;-83
2023/08/25 00:46:48;;;;;;;3.15;2.33;;;23.40;96.90;;;;;;5094933;28;20051;-84
2023/08/25 00:49:14;;;;;;;3.00;1.65;;;23.40;96.80;;;;;;5094958;28;20057;-83
2023/08/25 00:51:40;;;;;;;2.88;2.30;;;23.50;96.70;;;;;;5094894;28;20041;-82
2023/08/25 00:54:06;;;;;;;1.75;1.50;;;23.50;96.60;;;;;;5093953;28;20032;-84
2023/08/25 00:56:33;;;;;;;4.80;3.33;;;23.60;96.50;;;;;;5094869;28;20028;-84
2023/08/25 00:58:59;;;;;;;3.47;2.33;;;23.60;96.40;;;;;;5094759;28;20078;-83
2023/08/25 01:01:25;;;;;;;3.08;2.28;;;23.60;96.40;;;;;;5093933;28;20346;-83
2023/08/25 01:03:52;;;;;;;3.40;2.95;;;23.60;96.30;;;;;;5076622;28;20086;-84
2023/08/25 01:06:17;;;;;;;3.55;2.95;;;23.60;96.20;;;;;;5094928;28;20472;-84
2023/08/25 01:08:44;;;;;;;3.42;3.08;;;23.60;96.20;;;;;;5094752;28;20039;-84
2023/08/25 01:11:27;;;;;;;5.47;3.45;;;23.60;96.20;;;;;;5094851;28;20032;-84
2023/08/25 01:14:20;;;;;;;1.95;1.60;;;23.70;96.20;;;;;;5094611;28;20085;-83
2023/08/25 01:16:57;;;;;;;1.65;1.05;;;23.70;96.10;;;;;;5094661;28;20032;-83
2023/08/25 01:20:01;;;;;;;3.28;2.15;;;23.70;96.00;;;;;;5094333;28;20523;-83
2023/08/25 01:22:47;;;;;;;2.42;2.20;;;23.70;96.00;;;;;;5093390;28;20071;-81
2023/08/25 01:25:22;;;;;;;2.78;1.63;;;23.70;96.00;;;;;;5094232;28;20028;-81
2023/08/25 01:27:51;;;;;;;1.83;1.60;;;23.70;95.90;;;;;;5094343;28;20106;-81
2023/08/25 01:30:17;;;;;;;2.92;2.40;;;23.70;95.80;;;;;;5093916;28;20465;-81
2023/08/25 01:32:43;;;;;;;3.60;2.22;;;23.70;95.80;;;;;;5094471;28;20028;-81
2023/08/25 01:35:14;;;;;;;4.65;3.53;;;23.70;95.80;;;;;;5094109;28;20118;-81
2023/08/25 01:37:47;;;;;;;2.88;2.40;;;23.70;95.80;;;;;;5094725;28;20110;-83
2023/08/25 01:40:21;;;;;;;4.88;3.67;;;23.70;95.70;;;;;;5092534;28;20028;-83
2023/08/25 01:42:49;;;;;;;4.82;3.83;;;23.70;95.80;;;;;;5094249;28;20059;-81
2023/08/25 01:45:17;;;;;;;2.55;1.92;;;23.70;95.90;;;;;;5093997;28;20032;-80
2023/08/25 01:47:45;;;;;;;2.90;2.70;;;23.60;95.90;;;;;;5093395;28;20028;-80
2023/08/25 01:50:14;;;;;;;3.88;2.15;;;23.70;95.80;;;;;;5093909;28;20024;-81
2023/08/25 01:52:41;;;;;;;5.55;2.33;;;23.70;95.80;;;;;;5092595;28;20028;-79
2023/08/25 01:55:08;;;;;;;3.60;2.13;;;23.70;95.80;;;;;;5092733;28;20032;-81
2023/08/25 01:57:33;;;;;;;1.38;0.98;;;23.70;95.70;;;;;;5093851;28;20028;-81
2023/08/25 01:59:59;;;;;;;2.55;2.33;;;23.70;95.70;;;;;;5094143;28;20112;-81
2023/08/25 02:02:25;;;;;;;3.05;2.75;;;23.70;95.60;;;;;;5092656;28;20115;-82
2023/08/25 02:04:50;;;;;;;3.28;1.98;;;23.70;95.60;;;;;;5093432;28;20071;-81
2023/08/25 02:07:16;;;;;;;3.35;3.05;;;23.70;95.60;;;;;;5094038;28;20036;-82
2023/08/25 02:09:41;;;;;;;3.15;2.60;;;23.70;95.60;;;;;;5093708;28;20039;-81
2023/08/25 02:12:07;;;;;;;3.10;2.90;;;23.70;95.50;;;;;;5094020;28;20434;-81
2023/08/25 02:14:33;;;;;;;4.30;3.22;;;23.80;95.50;;;;;;5094157;28;20525;-81
2023/08/25 02:16:58;;;;;;;4.13;2.40;;;23.70;95.50;;;;;;5093746;28;20028;-82
2023/08/25 02:19:24;;;;;;;2.88;2.53;;;23.80;95.50;;;;;;5093772;28;20080;-82
2023/08/25 02:21:50;;;;;;;4.95;2.88;;;23.70;95.50;;;;;;5092633;28;20089;-81
2023/08/25 02:24:15;;;;;;;3.53;3.08;;;23.70;95.50;;;;;;5092141;28;20067;-82
2023/08/25 02:26:41;;;;;;;4.05;3.33;;;23.80;95.50;;;;;;5093634;28;20035;-82
2023/08/25 02:29:07;;;;;;;4.28;2.70;;;23.80;95.40;;;;;;5093681;28;20064;-82
2023/08/25 02:31:32;;;;;;;5.30;4.80;;;23.80;95.40;;;;;;5093748;28;20077;-82
2023/08/25 02:33:58;;;;;;;3.55;2.78;;;23.80;95.50;;;;;;5094042;28;20118;-81
2023/08/25 02:36:23;;;;;;;3.15;2.20;;;23.70;95.70;;;;;;5093629;28;20081;-82
2023/08/25 02:38:49;;;;;;;3.22;2.85;;;23.70;95.60;;;;;;5093528;28;20376;-81
2023/08/25 02:41:15;;;;;;;3.25;2.38;;;23.70;95.60;;;;;;5093493;28;20028;-82
2023/08/25 02:43:40;;;;;;;6.68;3.72;;;23.70;95.60;;;;;;5093583;28;20478;-82
2023/08/25 02:46:06;;;;;;;5.35;4.85;;;23.70;95.60;;;;;;5092137;28;20105;-81
2023/08/25 02:48:32;;;;;;;5.10;4.20;;;23.60;95.80;;;;;;5093465;28;20032;-81
2023/08/25 02:50:58;;;;;;;9.52;7.68;;;23.60;95.90;;;;;;5092040;28;20054;-82
2023/08/25 02:53:23;;;;;;;3.17;2.95;;;23.50;96.20;;;;;;5093597;28;20028;-81
2023/08/25 02:55:49;;;;;;;4.93;4.43;;;23.50;96.30;;;;;;5093609;28;20032;-81
2023/08/25 02:58:14;;;;;;;5.22;4.43;;;23.50;96.10;;;;;;5093620;28;20028;-82
2023/08/25 03:00:40;;;;;;;4.43;3.63;;;23.60;96.10;;;;;;5095907;28;20423;-81
2023/08/25 03:03:06;;;;;;;3.90;3.45;;;23.60;96.00;;;;;;5097010;28;20036;-81
2023/08/25 03:05:31;;;;;;;6.47;5.10;;;23.60;96.00;;;;;;5096584;28;20077;-81
2023/08/25 03:07:57;;;;;;;5.38;4.88;;;23.60;95.90;;;;;;5096913;28;20032;-81
2023/08/25 03:10:22;;;;;;;4.93;4.45;;;23.60;96.10;;;;;;5096862;28;20388;-81
2023/08/25 03:12:48;;;;;;;6.07;4.65;;;23.70;95.80;;;;;;5096779;28;20028;-81
2023/08/25 03:15:14;;;;;;;4.18;2.95;;;23.70;95.80;;;;;;5096712;28;20064;-82
2023/08/25 03:17:41;;;;;;;3.53;3.15;;;23.70;95.70;;;;;;5096761;28;20028;-82
2023/08/25 03:20:07;;;;;;;4.20;3.83;;;23.70;95.70;;;;;;5096782;28;20134;-82
2023/08/25 03:22:33;;;;;;;3.15;2.85;;;23.70;95.70;;;;;;5095930;28;20124;-82
2023/08/25 03:24:59;;;;;;;6.00;4.00;;;23.70;95.70;;;;;;5096520;28;20581;-81
2023/08/25 03:27:24;;;;;;;3.15;2.15;;;23.70;95.60;;;;;;5096547;28;20040;-81
2023/08/25 03:29:50;;;;;;;5.72;3.78;;;23.70;95.60;;;;;;5096841;28;20377;-80
2023/08/25 03:32:16;;;;;;;7.47;6.60;;;23.80;95.50;;;;;;5078392;28;20381;-81
2023/08/25 03:34:42;;;;;;;3.97;3.58;;;23.80;95.50;;;;;;5096085;28;20028;-80
2023/08/25 03:37:07;;;;;;;4.43;3.58;;;23.80;95.50;;;;;;5096004;28;20028;-80
2023/08/25 03:39:34;;;;;;;4.15;3.75;;;23.80;95.50;;;;;;5096787;28;20055;-81
2023/08/25 03:42:00;;;;;;;5.30;3.88;;;23.80;95.50;;;;;;5096822;28;20120;-80
2023/08/25 03:44:25;;;;;;;5.82;4.90;;;23.80;95.50;;;;;;5095845;28;20071;-81
2023/08/25 03:46:51;;;;;;;4.18;3.78;;;23.80;95.50;;;;;;5096716;28;20032;-81
2023/08/25 03:49:17;;;;;;;4.30;3.90;;;23.80;95.50;;;;;;5096084;28;20039;-82
2023/08/25 03:51:42;;;;;;;5.30;4.80;;;23.80;95.50;;;;;;5094836;28;20460;-82
2023/08/25 03:54:08;;;;;;;5.03;4.32;;;23.80;95.40;;;;;;5096029;28;20036;-81
2023/08/25 03:56:34;;;;;;;4.75;4.32;;;23.80;95.40;;;;;;5094332;28;20468;-82
2023/08/25 03:58:59;;;;;;;6.07;5.25;;;23.80;95.40;;;;;;5094412;28;20035;-81
2023/08/25 04:01:25;;;;;;;2.67;2.40;;;23.80;95.50;;;;;;5095297;28;20468;-80
2023/08/25 04:03:50;;;;;;;6.07;4.60;;;23.80;95.40;;;;;;5094998;28;20032;-81
2023/08/25 04:06:16;;;;;;;6.15;4.57;;;23.80;95.40;;;;;;5095501;28;20351;-81
2023/08/25 04:08:42;;;;;;;7.10;6.30;;;23.80;95.40;;;;;;5095308;28;20551;-83
2023/08/25 04:11:07;;;;;;;4.80;4.10;;;23.80;95.60;;;;;;5095041;28;20080;-83
2023/08/25 04:13:33;;;;;;;5.18;4.45;;;23.70;95.60;;;;;;5095209;28;20081;-83
2023/08/25 04:16:01;;;;;;;6.63;5.93;;;23.70;95.60;;;;;;5095120;28;20088;-82
2023/08/25 04:18:27;;;;;;;7.53;5.90;;;23.70;95.50;;;;;;5094986;28;20460;-82
2023/08/25 04:20:53;;;;;;;6.75;4.78;;;23.70;95.50;;;;;;5093717;28;20048;-83
2023/08/25 04:23:18;;;;;;;6.13;5.53;;;23.80;95.50;;;;;;5094880;28;20082;-82
2023/08/25 04:25:44;;;;;;;8.18;6.22;;;23.80;95.50;;;;;;5094722;28;20036;-83
2023/08/25 04:28:10;;;;;;;5.50;5.00;;;23.70;95.40;;;;;;5094441;28;20082;-83
2023/08/25 04:30:36;;;;;;;5.70;4.03;;;23.80;95.50;;;;;;5094735;28;20032;-83
2023/08/25 04:33:02;;;;;;;3.42;3.10;;;23.80;95.50;;;;;;5093263;28;20099;-83
2023/08/25 04:35:27;;;;;;;6.82;4.82;;;23.80;95.40;;;;;;5094628;28;20052;-84
2023/08/25 04:37:53;;;;;;;4.70;4.05;;;23.80;95.40;;;;;;5094586;28;20031;-84
2023/08/25 04:40:21;;;;;;;4.32;3.90;;;23.80;95.40;;;;;;5094790;28;20465;-83
2023/08/25 04:42:46;;;;;;;6.07;4.28;;;23.80;95.30;;;;;;5094188;28;20032;-84
2023/08/25 04:45:13;;;;;;;3.75;3.35;;;23.80;95.30;;;;;;5094509;28;20105;-83
2023/08/25 04:47:39;;;;;;;5.13;4.07;;;23.80;95.30;;;;;;5094205;28;20032;-83
2023/08/25 04:50:07;;;;;;;3.55;3.25;;;23.80;95.30;;;;;;5094478;28;20034;-83
2023/08/25 04:52:36;;;;;;;7.95;5.25;;;23.80;95.30;;;;;;5095026;28;20350;-83
2023/08/25 04:55:03;;;;;;;8.02;5.22;;;23.80;95.30;;;;;;5094283;28;20107;-83
2023/08/25 04:57:28;;;;;;;5.55;4.47;;;23.80;95.30;;;;;;5094379;28;20024;-83
2023/08/25 04:59:54;;;;;;;4.53;4.10;;;23.80;95.60;;;;;;5094030;28;20440;-83
2023/08/25 05:02:20;;;;;;;4.60;4.20;;;23.80;95.40;;;;;;5094113;28;20039;-83
2023/08/25 05:04:46;;;;;;;5.15;4.38;;;23.80;95.40;;;;;;5093758;28;20106;-82
2023/08/25 05:07:11;;;;;;;8.63;6.63;;;23.80;95.40;;;;;;5094395;28;20031;-83
2023/08/25 05:09:38;;;;;;;5.22;4.22;;;23.80;95.50;;;;;;5092304;28;20078;-83
2023/08/25 05:12:04;;;;;;;5.82;5.10;;;23.80;95.50;;;;;;5094244;28;20032;-83
2023/08/25 05:14:30;;;;;;;5.90;5.32;;;23.80;95.50;;;;;;5094106;28;20081;-83
2023/08/25 05:16:56;;;;;;;7.68;5.80;;;23.80;95.60;;;;;;5093702;28;20341;-83
2023/08/25 05:19:21;;;;;;;4.05;2.97;;;23.70;95.60;;;;;;5093924;28;20052;-83
2023/08/25 05:21:47;;;;;;;5.22;4.15;;;23.70;95.60;;;;;;5092777;28;20044;-82
2023/08/25 05:24:20;;;;;;;9.73;7.93;;;23.70;95.60;;;;;;5093981;28;20135;-82
2023/08/25 05:26:47;;;;;;;7.15;6.45;;;23.70;95.60;;;;;;5093823;28;20154;-82
2023/08/25 05:29:14;;;;;;;6.72;6.05;;;23.70;95.60;;;;;;5093955;28;20058;-80
2023/08/25 05:31:40;;;;;;;6.05;5.43;;;23.80;95.50;;;;;;5092490;28;20035;-82
2023/08/25 05:34:05;;;;;;;5.20;4.70;;;23.80;95.50;;;;;;5093866;28;20020;-82
2023/08/25 05:36:31;;;;;;;10.02;8.10;;;23.70;95.50;;;;;;5093597;28;20077;-83
2023/08/25 05:38:57;;;;;;;10.05;8.80;;;23.80;95.60;;;;;;5093994;28;20113;-83
2023/08/25 05:41:22;;;;;;;10.95;8.85;;;23.80;95.60;;;;;;5093775;28;20028;-83
2023/08/25 05:43:48;;;;;;;10.65;9.05;;;23.80;95.70;;;;;;5093632;28;20367;-83
2023/08/25 05:46:14;;;;;;;8.23;6.72;;;23.80;95.70;;;;;;5093237;28;20036;-82
2023/08/25 05:48:40;;;;;;;11.00;9.90;;;23.80;95.80;;;;;;5093416;28;20460;-82
2023/08/25 05:51:05;;;;;;;10.77;9.65;;;23.80;95.80;;;;;;5093203;28;20025;-83
2023/08/25 05:53:31;;;;;;;7.80;7.10;;;23.80;95.90;;;;;;5093460;28;20031;-82
2023/08/25 05:55:57;;;;;;;7.32;6.63;;;23.80;96.20;;;;;;5092152;28;20028;-82
2023/08/25 05:58:23;;;;;;;6.40;5.85;;;23.80;95.90;;;;;;5091970;28;20059;-83
2023/08/25 06:00:49;;;;;;;6.57;5.85;;;23.80;95.80;;;;;;5093105;28;20028;-82
2023/08/25 06:03:16;;;;;;;12.30;10.57;;;23.80;95.80;;;;;;5093351;28;20028;-83
2023/08/25 06:05:42;;;;;;;8.25;7.40;;;23.80;96.20;;;;;;5093239;28;20029;-83
2023/08/25 06:08:08;;;;;;;11.82;10.63;;;23.80;96.20;;;;;;5093527;28;20024;-82
2023/08/25 06:10:35;;;;;;;7.07;5.82;;;23.80;96.10;;;;;;5093536;28;20104;-82
2023/08/25 06:13:01;;;;;;;7.82;6.70;;;23.80;96.20;;;;;;5093155;28;20024;-83
2023/08/25 06:15:26;;;;;;;10.90;9.23;;;23.70;96.20;;;;;;5092888;28;20040;-82
2023/08/25 06:17:52;;;;;;;6.63;5.93;;;23.70;96.20;;;;;;5093387;28;20048;-83
2023/08/25 06:20:19;;;;;;;8.65;7.75;;;23.70;96.20;;;;;;5092839;28;20055;-83
2023/08/25 06:22:45;;;;;;;3.05;2.80;;;23.70;96.30;;;;;;5093195;28;20431;-82
2023/08/25 06:25:11;;;;;;;10.13;8.75;;;23.70;96.20;;;;;;5092772;28;20040;-83
2023/08/25 06:27:37;;;;;;;11.90;8.38;;;23.70;96.20;;;;;;5093272;28;20483;-83
2023/08/25 06:30:03;;;;;;;8.85;7.07;;;23.70;96.20;;;;;;5093508;28;20040;-82
2023/08/25 06:32:29;;;;;;;9.48;6.57;;;23.70;96.20;;;;;;5093274;28;20037;-83
2023/08/25 06:34:54;;;;;;;9.02;8.23;;;23.70;96.30;;;;;;5096117;28;20521;-82
2023/08/25 06:37:20;;;;;;;11.43;7.80;;;23.70;96.40;;;;;;5097003;28;20389;-82
2023/08/25 06:39:47;;;;;;;7.97;5.38;;;23.70;96.60;;;;;;5095581;28;20057;-83
2023/08/25 06:42:13;;;;;;;6.80;6.10;;;23.70;96.50;;;;;;5097003;28;20028;-83
2023/08/25 06:44:40;;;;;;;4.85;3.70;;;23.70;96.50;;;;;;5096509;28;20482;-83
2023/08/25 06:47:06;;;;;;;7.75;6.40;;;23.60;96.50;;;;;;5097164;28;20085;-83
2023/08/25 06:49:31;;;;;;;7.88;5.90;;;23.70;96.50;;;;;;5096004;28;20032;-83
2023/08/25 06:51:57;;;;;;;9.20;7.97;;;23.70;96.50;;;;;;5095219;28;20032;-82
2023/08/25 06:54:24;;;;;;;5.32;4.38;;;23.70;96.70;;;;;;5096703;28;20039;-81
2023/08/25 06:56:50;;;;;;;8.68;6.57;;;23.70;96.80;;;;;;5095661;28;20031;-82
2023/08/25 06:59:16;;;;;;;8.48;6.70;;;23.70;96.70;;;;;;5096498;28;20027;-82
2023/08/25 07:01:43;;;;;;;12.25;10.10;;;23.70;96.60;;;;;;5096156;28;20186;-83
2023/08/25 07:04:08;;;;;;;10.52;8.88;;;23.70;96.80;;;;;;5096739;28;20027;-82
2023/08/25 07:06:36;;;;;;;12.02;10.73;;;23.70;96.90;;;;;;5096014;28;20036;-82
2023/08/25 07:09:05;;;;;;;7.55;6.65;;;23.60;97.10;;;;;;5095542;28;20028;-83
2023/08/25 07:11:31;;;;;;;7.18;5.95;;;23.60;97.20;;;;;;5096212;28;20020;-82
2023/08/25 07:13:56;;;;;;;9.20;6.93;;;23.60;97.20;;;;;;5096702;28;20368;-82
2023/08/25 07:16:22;;;;;;;10.32;9.18;;;23.60;97.20;;;;;;5096141;28;20036;-83
2023/08/25 07:18:47;;;;;;;8.68;7.70;;;23.60;97.30;;;;;;5095591;28;20028;-83
2023/08/25 07:21:13;;;;;;;7.40;5.82;;;23.50;97.40;;;;;;5094735;28;20055;-82
2023/08/25 07:23:43;;;;;;;8.57;7.72;;;23.50;97.40;;;;;;5095025;28;20031;-83
2023/08/25 07:26:09;;;;;;;11.43;10.23;;;23.50;97.50;;;;;;5096205;28;20115;-82
2023/08/25 07:28:35;;;;;;;10.98;7.90;;;23.50;97.50;;;;;;5096130;28;20430;-82
2023/08/25 07:31:01;;;;;;;8.13;6.95;;;23.50;97.60;;;;;;5094721;28;20024;-83
2023/08/25 07:33:27;;;;;;;6.90;6.20;;;23.50;97.40;;;;;;5095074;28;20073;-82
2023/08/25 07:35:53;;;;;;;5.63;4.75;;;23.60;97.30;;;;;;5095425;28;20093;-82
2023/08/25 07:38:19;;;;;;;10.57;8.68;;;23.60;97.30;;;;;;5095643;28;20016;-82
2023/08/25 07:40:44;;;;;;;11.88;10.25;;;23.60;97.70;;;;;;5095727;28;20024;-82
2023/08/25 07:43:10;;;;;;;9.30;8.30;;;23.60;97.60;;;;;;5095229;28;20161;-83
2023/08/25 07:45:36;;;;;;;5.90;5.30;;;23.50;97.60;;;;;;5094964;28;20123;-83
2023/08/25 07:48:02;;;;;;;11.70;10.48;;;23.40;97.90;;;;;;5094110;28;20028;-83
2023/08/25 07:50:29;;;;;;;7.85;6.63;;;23.40;97.80;;;;;;5095849;28;20030;-82
2023/08/25 07:52:55;;;;;;;13.88;11.95;;;23.40;97.80;;;;;;5095118;28;20048;-83
2023/08/25 07:55:22;;;;;;;10.10;8.50;;;23.40;98.20;;;;;;5095429;28;20476;-82
2023/08/25 07:57:48;;;;;;;7.05;5.40;;;23.40;98.30;;;;;;5095353;28;20062;-82
2023/08/25 08:00:17;;;;;;;10.43;7.65;;;23.40;98.20;;;;;;5094917;28;20054;-83
2023/08/25 08:02:47;;;;;;;16.40;11.57;;;23.30;98.00;;;;;;5095187;28;20024;-83
2023/08/25 08:05:15;;;;;;;8.75;7.85;;;23.30;98.20;;;;;;5095617;28;20062;-83
2023/08/25 08:07:42;;;;;;;7.88;6.88;;;23.40;98.20;;;;;;5095676;28;20135;-82
2023/08/25 08:10:09;;;;;;;9.52;8.52;;;23.30;98.10;;;;;;5095333;28;20024;-83
2023/08/25 08:12:34;;;;;;;19.67;17.63;;;23.30;98.30;;;;;;5095175;28;20051;-82
2023/08/25 08:15:00;;;;;;;18.65;16.00;;;23.30;98.70;;;;;;5094655;28;20067;-83
2023/08/25 08:17:26;;;;;;;6.82;6.13;;;23.20;99.20;;;;;;5094953;28;20032;-82
2023/08/25 08:19:52;;;;;;;19.70;16.60;;;23.20;99.20;;;;;;5094811;28;20393;-83
2023/08/25 08:22:19;;;;;;;20.13;17.30;;;23.20;99.30;;;;;;5094557;28;20035;-82
2023/08/25 08:24:48;;;;;;;23.52;21.00;;;23.20;99.30;;;;;;5094864;28;20078;-84
2023/08/25 08:27:15;;;;;;;22.52;20.10;;;23.20;99.40;;;;;;5095057;28;20131;-85
2023/08/25 08:29:42;;;;;;;15.23;12.95;;;23.20;99.70;;;;;;5095170;28;20111;-84
2023/08/25 08:32:08;;;;;;;21.48;17.77;;;23.20;99.60;;;;;;5093507;28;20472;-82
2023/08/25 08:34:34;;;;;;;11.18;9.98;;;23.20;99.90;;;;;;5093108;28;20024;-82
2023/08/25 08:36:59;;;;;;;13.73;12.10;;;23.10;99.90;;;;;;5094534;28;20161;-82
2023/08/25 08:39:25;;;;;;;17.73;13.02;;;23.00;99.90;;;;;;5094180;28;20059;-82
2023/08/25 08:41:52;;;;;;;15.27;10.50;;;23.00;99.90;;;;;;5094536;28;20035;-81
2023/08/25 08:44:19;;;;;;;9.40;7.18;;;23.10;99.90;;;;;;5094601;28;20093;-82
2023/08/25 08:46:48;;;;;;;10.35;9.25;;;23.10;99.90;;;;;;5094215;28;20039;-81
2023/08/25 08:49:14;;;;;;;10.60;9.20;;;23.10;99.90;;;;;;5094465;28;20028;-84
2023/08/25 08:51:43;;;;;;;10.23;9.23;;;23.10;99.90;;;;;;5094261;28;20465;-84
2023/08/25 08:54:09;;;;;;;19.20;15.07;;;23.10;99.90;;;;;;5094126;28;20024;-84
2023/08/25 08:56:35;;;;;;;14.35;12.85;;;23.10;99.90;;;;;;5092994;28;20457;-84
2023/08/25 08:59:04;;;;;;;13.82;12.35;;;23.00;99.90;;;;;;5094492;28;20032;-84
2023/08/25 09:01:31;;;;;;;17.83;16.13;;;22.90;99.90;;;;;;5094225;28;20026;-85
2023/08/25 09:04:00;;;;;;;18.80;16.83;;;22.90;99.90;;;;;;5092738;28;20422;-77
2023/08/25 09:06:32;;;;;;;13.32;11.93;;;22.70;99.90;;;;;;5094163;28;20032;-83
2023/08/25 09:09:04;;;;;;;9.85;7.60;;;22.60;99.90;;;;;;5094864;28;20028;-84
2023/08/25 09:11:29;;;;;;;10.95;9.10;;;22.60;99.90;;;;;;5094127;28;20020;-85
2023/08/25 09:13:57;;;;;;;10.00;8.10;;;22.60;99.90;;;;;;5093741;28;20058;-85
2023/08/25 09:16:24;;;;;;;14.27;12.23;;;22.70;99.90;;;;;;5094267;28;20043;-85
2023/08/25 09:18:51;;;;;;;15.27;13.65;;;22.80;99.90;;;;;;5094067;28;20032;-84
2023/08/25 09:21:20;;;;;;;11.40;10.13;;;22.80;99.90;;;;;;5093663;28;20048;-85
2023/08/25 09:24:17;;;;;;;12.20;10.25;;;22.80;99.90;;;;;;5093813;28;20024;-86
2023/08/25 09:26:42;;;;;;;10.77;8.23;;;22.80;99.90;;;;;;5093039;28;20055;-85
2023/08/25 09:29:10;;;;;;;10.63;8.63;;;22.80;99.90;;;;;;5092871;28;20028;-83
2023/08/25 09:31:36;;;;;;;7.03;6.32;;;22.90;99.90;;;;;;5094136;28;20032;-85
2023/08/25 09:34:05;;;;;;;7.78;6.50;;;22.90;99.90;;;;;;5094159;28;20117;-84
2023/08/25 09:36:31;;;;;;;9.88;8.88;;;22.90;99.90;;;;;;5093997;28;20118;-85
2023/08/25 09:38:57;;;;;;;9.93;8.60;;;23.00;99.90;;;;;;5093627;28;20483;-85
2023/08/25 09:41:28;;;;;;;6.05;5.32;;;22.90;99.90;;;;;;5093638;28;20555;-84
2023/08/25 09:44:01;;;;;;;8.50;7.28;;;22.90;99.90;;;;;;5093319;28;20024;-84
2023/08/25 09:46:33;;;;;;;9.68;7.40;;;22.90;99.90;;;;;;5093588;28;20042;-85
2023/08/25 09:49:03;;;;;;;8.13;7.32;;;22.90;99.90;;;;;;5094058;28;20478;-85
2023/08/25 09:51:47;;;;;;;6.88;6.18;;;22.90;99.90;;;;;;5093740;28;20035;-86
2023/08/25 09:54:15;;;;;;;4.63;4.22;;;22.80;99.90;;;;;;5093677;28;20027;-84
2023/08/25 09:56:42;;;;;;;6.15;5.20;;;22.80;99.90;;;;;;5093687;28;20036;-85
2023/08/25 09:59:10;;;;;;;5.95;5.20;;;22.80;99.90;;;;;;5093497;28;20082;-86
2023/08/25 10:01:38;;;;;;;5.45;4.47;;;22.80;99.90;;;;;;5093679;28;20056;-87
2023/08/25 10:04:04;;;;;;;5.55;4.53;;;22.80;99.90;;;;;;5095096;28;20028;-87
2023/08/25 10:06:33;;;;;;;4.63;3.33;;;22.80;99.90;;;;;;5093739;28;20032;-84
2023/08/25 10:08:59;;;;;;;4.28;3.88;;;22.90;99.90;;;;;;5099086;28;20414;-84
2023/08/25 10:11:36;;;;;;;5.75;4.57;;;22.80;99.90;;;;;;5100136;28;20024;-85
2023/08/25 10:14:05;;;;;;;5.55;5.03;;;22.80;99.90;;;;;;5100429;28;20024;-84
2023/08/25 10:16:52;;;;;;;4.93;3.75;;;22.90;99.90;;;;;;5099860;28;20032;-84
2023/08/25 10:19:26;;;;;;;6.97;6.28;;;22.90;99.90;;;;;;5098524;28;20028;-84
2023/08/25 10:21:52;;;;;;;6.13;4.63;;;22.90;99.90;;;;;;5100774;28;20101;-85
2023/08/25 10:24:23;;;;;;;3.90;3.60;;;22.80;99.90;;;;;;5100378;28;20027;-86
2023/08/25 10:26:53;;;;;;;4.60;4.00;;;22.70;99.90;;;;;;5102605;28;20063;-83
2023/08/25 10:29:22;;;;;;;5.30;4.10;;;22.70;99.90;;;;;;5101155;28;20032;-83
2023/08/25 10:31:57;;;;;;;3.47;2.92;;;22.70;99.90;;;;;;5100751;28;20051;-83
2023/08/25 10:34:53;;;;;;;3.17;2.50;;;22.70;99.90;;;;;;5101114;28;20103;-83
2023/08/25 10:37:26;;;;;;;3.35;2.40;;;22.80;99.90;;;;;;5096665;28;20048;-84
2023/08/25 10:40:06;;;;;;;5.30;3.33;;;22.90;99.90;;;;;;5099944;28;20025;-85
2023/08/25 10:42:33;;;;;;;3.78;3.45;;;23.00;99.90;;;;;;5098793;28;20074;-85
2023/08/25 10:45:10;;;;;;;3.42;3.13;;;23.10;99.90;;;;;;5098650;28;20051;-86
2023/08/25 10:47:46;;;;;;;3.53;3.20;;;23.10;99.90;;;;;;5099579;28;20020;-87
2023/08/25 10:50:13;;;;;;;4.15;3.80;;;23.20;99.90;;;;;;5099285;28;20490;-86
2023/08/25 10:52:43;;;;;;;3.95;3.05;;;23.20;99.90;;;;;;5099900;28;20373;-86
2023/08/25 10:55:28;;;;;;;3.55;3.05;;;23.30;99.90;;;;;;5099644;28;20024;-86
2023/08/25 10:58:05;;;;;;;5.57;5.07;;;23.50;99.90;;;;;;5099862;28;20050;-85
2023/08/25 11:00:36;;;;;;;4.82;4.13;;;23.60;99.90;;;;;;5099685;28;20024;-85
2023/08/25 11:03:03;;;;;;;5.20;4.80;;;23.60;99.90;;;;;;5099486;28;20020;-86
2023/08/25 11:05:28;;;;;;;5.20;4.70;;;23.60;99.90;;;;;;5099854;28;20042;-84
2023/08/25 11:07:55;;;;;;;6.25;5.65;;;23.50;99.90;;;;;;5099443;28;20028;-75
2023/08/25 11:10:27;;;;;;;5.95;5.35;;;23.40;99.90;;;;;;5099466;28;20032;-77
2023/08/25 11:12:53;;;;;;;5.30;4.90;;;23.30;99.90;;;;;;5099521;28;20053;-75
2023/08/25 11:15:22;;;;;;;6.03;4.88;;;23.20;99.90;;;;;;5099151;28;20468;-76
2023/08/25 11:17:51;;;;;;;5.60;5.10;;;23.20;99.90;;;;;;5097981;28;20039;-75
2023/08/25 11:20:17;;;;;;;3.50;3.20;;;23.10;99.90;;;;;;5095622;28;20357;-76
2023/08/25 11:22:56;;;;;;;7.35;5.10;;;23.10;99.90;;;;;;5095264;28;20055;-78
2023/08/25 11:25:22;;;;;;;4.35;3.95;;;23.00;99.90;;;;;;5095631;28;20472;-77
2023/08/25 11:27:51;;;;;;;4.85;3.85;;;22.80;99.90;;;;;;5094862;28;20055;-84
2023/08/25 11:30:18;;;;;;;6.50;5.30;;;22.70;99.90;;;;;;5095545;28;20066;-86
2023/08/25 11:32:50;;;;;;;5.45;5.05;;;22.60;99.90;;;;;;5096017;28;20030;-85
2023/08/25 11:35:17;;;;;;;8.25;6.70;;;22.50;99.90;;;;;;5095953;28;20108;-85
2023/08/25 11:37:46;;;;;;;6.22;5.45;;;22.40;99.90;;;;;;5095755;28;20413;-85
2023/08/25 11:40:17;;;;;;;7.32;6.30;;;22.40;99.90;;;;;;5095815;28;20082;-81
2023/08/25 11:42:43;;;;;;;9.52;7.35;;;22.50;99.90;;;;;;5095671;28;20020;-82
2023/08/25 11:45:10;;;;;;;8.00;7.25;;;22.60;99.90;;;;;;5095635;28;20577;-83
2023/08/25 11:47:37;;;;;;;7.20;6.60;;;22.50;99.90;;;;;;5094517;28;20060;-87
2023/08/25 11:50:07;;;;;;;8.75;7.80;;;22.60;99.90;;;;;;5095349;28;20138;-85
2023/08/25 11:52:33;;;;;;;8.40;7.38;;;22.50;99.90;;;;;;5095821;28;20049;-84
2023/08/25 11:55:00;;;;;;;8.85;7.75;;;22.50;99.90;;;;;;5095389;28;20032;-85
2023/08/25 11:57:35;;;;;;;6.38;5.78;;;22.40;99.90;;;;;;5095350;28;20028;-82
2023/08/25 12:00:03;;;;;;;8.95;7.97;;;22.40;99.90;;;;;;5095122;28;20107;-75
2023/08/25 12:02:29;;;;;;;9.85;7.20;;;22.40;99.90;;;;;;5094393;28;20429;-76
2023/08/25 12:04:56;;;;;;;5.95;4.72;;;22.40;99.90;;;;;;5093313;28;20471;-76
2023/08/25 12:07:23;;;;;;;4.38;3.97;;;22.40;99.90;;;;;;5095207;28;20422;-75
2023/08/25 12:09:56;;;;;;;9.75;5.70;;;22.50;99.90;;;;;;5095265;28;20126;-77
2023/08/25 12:12:23;;;;;;;6.68;5.93;;;22.70;99.90;;;;;;5093912;28;20036;-76
2023/08/25 12:14:53;;;;;;;5.35;4.50;;;22.90;99.90;;;;;;5077047;28;20035;-75
2023/08/25 12:17:28;;;;;;;6.85;4.28;;;22.90;99.90;;;;;;5094229;28;20028;-75
2023/08/25 12:19:55;;;;;;;6.15;3.40;;;23.00;99.90;;;;;;5095103;28;20023;-75
2023/08/25 12:22:21;;;;;;;5.30;4.20;;;23.20;99.90;;;;;;5092869;28;20158;-75
2023/08/25 12:24:47;;;;;;;3.92;3.53;;;23.20;99.90;;;;;;5095478;28;20038;-76
2023/08/25 12:27:13;;;;;;;7.20;4.13;;;23.20;99.90;;;;;;5076529;28;20135;-75
2023/08/25 12:29:39;;;;;;;8.48;6.22;;;23.30;99.90;;;;;;5076694;28;20350;-77
2023/08/25 12:32:07;;;;;;;6.97;5.13;;;23.30;99.90;;;;;;5092713;28;20026;-75
2023/08/25 12:34:36;;;;;;;5.10;4.20;;;23.30;99.90;;;;;;5094423;28;20342;-75
2023/08/25 12:37:06;;;;;;;6.55;5.85;;;23.40;99.90;;;;;;5077297;28;20063;-74
2023/08/25 12:39:32;;;;;;;4.38;3.97;;;23.40;99.90;;;;;;5093041;28;20040;-75
2023/08/25 12:41:58;;;;;;;5.68;4.32;;;23.40;99.90;;;;;;5094618;28;20098;-74
2023/08/25 12:44:23;;;;;;;6.93;4.30;;;23.40;99.90;;;;;;5094573;28;20024;-74